createdAt,value
2023-05-10T06:42:24.083Z,13.61
2023-05-10T06:45:10.252Z,13.61
2023-05-10T06:47:55.910Z,13.25
2023-05-10T06:50:41.511Z,13.26
2023-05-10T06:53:26.925Z,13.39
2023-05-10T06:56:12.129Z,13.68
2023-05-10T06:58:57.585Z,13.78
2023-05-10T07:01:43.531Z,13.87
2023-05-10T07:04:28.878Z,13.93
2023-05-10T07:07:15.023Z,14.07
2023-05-10T07:10:00.650Z,14.50
2023-05-10T07:12:46.074Z,14.50
2023-05-10T07:15:31.616Z,14.81
2023-05-10T07:18:17.020Z,15.02
2023-05-10T07:21:02.851Z,15.29
2023-05-10T07:23:48.396Z,15.31
2023-05-10T07:26:33.791Z,15.01
2023-05-10T07:29:19.213Z,15.38
2023-05-10T07:32:04.732Z,15.47
2023-05-10T07:34:50.028Z,15.68
2023-05-10T07:37:36.056Z,15.79
2023-05-10T07:40:21.584Z,16.22
2023-05-10T07:43:07.467Z,16.90
2023-05-10T07:45:55.398Z,16.79
2023-05-10T07:48:41.522Z,16.76
2023-05-10T07:51:27.277Z,17.34
2023-05-10T07:54:12.355Z,16.67
2023-05-10T07:56:57.633Z,16.86
2023-05-10T07:59:43.219Z,17.00
2023-05-10T08:02:28.231Z,17.07
2023-05-10T08:05:13.845Z,17.36
2023-05-10T08:08:00.561Z,17.37
2023-05-10T08:10:46.008Z,17.93
2023-05-10T08:13:32.504Z,17.32
2023-05-10T08:16:18.335Z,17.24
2023-05-10T08:19:03.861Z,17.82
2023-05-10T08:21:49.116Z,17.80
2023-05-10T08:24:39.127Z,18.20
2023-05-10T08:27:24.321Z,19.47
2023-05-10T08:30:10.199Z,19.62
2023-05-10T08:32:55.590Z,22.83
2023-05-10T08:35:41.027Z,24.23
2023-05-10T08:38:27.207Z,26.46
2023-05-10T08:41:12.292Z,24.15
2023-05-10T08:43:57.551Z,22.76
2023-05-10T08:46:47.371Z,22.40
2023-05-10T08:49:34.018Z,24.62
2023-05-10T08:52:19.541Z,23.44
2023-05-10T08:55:05.591Z,24.26
2023-05-10T08:57:50.753Z,22.51
2023-05-10T09:00:38.063Z,24.66
2023-05-10T09:03:23.774Z,25.78
2023-05-10T09:06:09.414Z,25.10
2023-05-10T09:08:55.051Z,22.95
2023-05-10T09:11:40.497Z,21.51
2023-05-10T09:14:26.487Z,21.19
2023-05-10T09:17:11.831Z,23.95
2023-05-10T09:20:01.246Z,24.80
2023-05-10T09:22:46.663Z,21.93
2023-05-10T09:25:34.308Z,23.32
2023-05-10T09:28:19.984Z,22.14
2023-05-10T09:31:05.182Z,19.73
2023-05-10T09:33:51.028Z,24.43
2023-05-10T09:36:36.641Z,23.88
2023-05-10T09:39:22.192Z,25.66
2023-05-10T09:42:09.756Z,28.69
2023-05-10T09:44:55.067Z,27.26
2023-05-10T09:47:40.386Z,27.44
2023-05-10T09:50:28.104Z,26.57
2023-05-10T09:53:16.599Z,22.61
2023-05-10T09:56:02.096Z,26.33
2023-05-10T09:58:47.474Z,23.98
2023-05-10T10:01:33.042Z,22.71
2023-05-10T10:04:18.672Z,26.60
2023-05-10T10:07:06.128Z,30.45
2023-05-10T10:09:51.451Z,30.18
2023-05-10T10:12:36.867Z,30.57
2023-05-10T10:15:23.519Z,29.60
2023-05-10T10:18:09.429Z,27.95
2023-05-10T10:20:55.853Z,29.60
2023-05-10T10:23:40.915Z,25.94
2023-05-10T10:26:26.897Z,26.40
2023-05-10T10:29:32.520Z,24.84
2023-05-10T10:32:50.359Z,23.34
2023-05-10T10:35:36.279Z,23.46
2023-05-10T10:38:22.175Z,24.91
2023-05-10T10:41:12.748Z,27.42
2023-05-10T10:44:23.423Z,26.38
2023-05-10T10:47:25.716Z,22.97
2023-05-10T10:50:15.870Z,27.20
2023-05-10T10:53:11.993Z,27.62
2023-05-10T10:56:08.341Z,27.31
2023-05-10T10:58:54.943Z,29.10
2023-05-10T11:01:45.205Z,28.86
2023-05-10T11:04:43.727Z,28.97
2023-05-10T11:07:29.058Z,28.59
2023-05-10T11:10:21.268Z,28.29
2023-05-10T11:13:11.198Z,25.19
2023-05-10T11:16:00.299Z,25.61
2023-05-10T11:18:57.755Z,28.54
2023-05-10T11:21:48.881Z,29.46
2023-05-10T11:24:34.850Z,24.40
2023-05-10T11:27:21.238Z,24.50
2023-05-10T11:30:08.040Z,22.13
2023-05-10T11:32:55.877Z,25.47
2023-05-10T11:35:43.577Z,26.25
2023-05-10T11:38:30.070Z,25.54
2023-05-10T11:41:16.744Z,24.42
2023-05-10T11:44:02.990Z,22.66
2023-05-10T11:46:48.186Z,24.66
2023-05-10T11:49:33.875Z,22.50
2023-05-10T11:52:20.044Z,21.71
2023-05-10T11:55:08.370Z,24.85
2023-05-10T11:58:01.614Z,28.71
2023-05-10T12:00:47.597Z,28.16
2023-05-10T12:03:33.309Z,25.42
2023-05-10T12:06:20.240Z,24.51
2023-05-10T12:09:07.445Z,26.39
2023-05-10T12:11:57.389Z,26.71
2023-05-10T12:14:42.582Z,28.22
2023-05-10T12:17:31.247Z,25.12
2023-05-10T12:20:25.092Z,23.35
2023-05-10T12:23:11.162Z,23.82
2023-05-10T12:26:03.462Z,24.62
2023-05-10T12:28:50.175Z,24.99
2023-05-10T12:31:51.246Z,23.02
2023-05-10T12:34:37.428Z,24.37
2023-05-10T12:37:25.741Z,24.26
2023-05-10T12:40:12.503Z,24.95
